Time;durP1;ratioP1;P1;durP2;ratioP2;P2;SDS_P1;SDS_P2;PMS_P1;PMS_P2;Temp;Humidity;BMP_temperature;BMP_pressure;BME280_temperature;BME280_humidity;BME280_pressure;Samples;Min_cycle;Max_cycle;Signal;HPM_P1;HPM_P2
2022/07/05 00:00:58;;;;;;;4.13;3.72;;;13.00;99.90;;;;;;5091655;28;20036;-28
2022/07/05 00:03:24;;;;;;;4.68;3.33;;;13.00;99.90;;;;;;5061717;28;20106;-28
2022/07/05 00:05:50;;;;;;;5.13;3.65;;;13.00;99.90;;;;;;5072100;28;20044;-28
2022/07/05 00:08:16;;;;;;;5.22;3.70;;;12.90;99.90;;;;;;5064514;28;20102;-28
2022/07/05 00:10:42;;;;;;;4.15;3.50;;;12.90;99.90;;;;;;5073088;28;20111;-28
2022/07/05 00:13:08;;;;;;;3.90;3.38;;;12.90;99.90;;;;;;5055951;28;20043;-28
2022/07/05 00:15:34;;;;;;;3.65;3.35;;;12.90;99.90;;;;;;5078801;28;20089;-28
2022/07/05 00:18:00;;;;;;;3.70;3.40;;;13.00;99.90;;;;;;5085021;28;20498;-28
2022/07/05 00:20:25;;;;;;;4.43;3.40;;;13.00;99.90;;;;;;5087333;28;20494;-28
2022/07/05 00:22:51;;;;;;;4.30;3.90;;;13.00;99.90;;;;;;5077469;28;20032;-28
2022/07/05 00:25:17;;;;;;;4.07;3.25;;;12.80;99.90;;;;;;5079336;28;20032;-28
2022/07/05 00:27:43;;;;;;;4.28;3.97;;;12.90;99.90;;;;;;5077537;28;20117;-28
2022/07/05 00:30:09;;;;;;;4.45;3.50;;;12.80;99.90;;;;;;5074349;28;20032;-28
2022/07/05 00:32:36;;;;;;;3.90;3.50;;;12.70;99.90;;;;;;5089298;28;20463;-28
2022/07/05 00:35:04;;;;;;;4.88;4.20;;;12.70;99.90;;;;;;5074429;28;20054;-28
2022/07/05 00:37:30;;;;;;;6.32;3.88;;;12.70;99.90;;;;;;5076130;28;20047;-27
2022/07/05 00:39:56;;;;;;;5.35;4.30;;;12.70;99.90;;;;;;5075509;28;20040;-27
2022/07/05 00:42:21;;;;;;;4.63;4.22;;;12.70;99.90;;;;;;5081528;28;20048;-27
2022/07/05 00:44:47;;;;;;;4.63;4.22;;;12.60;99.90;;;;;;5092108;28;20036;-27
2022/07/05 00:47:13;;;;;;;6.50;5.00;;;12.60;99.90;;;;;;5081418;28;20041;-28
2022/07/05 00:49:40;;;;;;;7.57;4.75;;;12.60;99.90;;;;;;5070536;28;20028;-27
2022/07/05 00:52:06;;;;;;;5.78;4.60;;;12.60;99.90;;;;;;5085644;28;20048;-27
2022/07/05 00:54:35;;;;;;;5.28;4.78;;;12.60;99.90;;;;;;5079643;28;20033;-27
2022/07/05 00:57:01;;;;;;;6.25;5.35;;;12.60;99.90;;;;;;5059495;28;20154;-28
2022/07/05 00:59:28;;;;;;;5.80;5.30;;;12.60;99.90;;;;;;5069477;28;20517;-28
2022/07/05 01:01:54;;;;;;;5.70;5.03;;;12.60;99.90;;;;;;5054539;28;20094;-28
2022/07/05 01:04:20;;;;;;;6.18;4.90;;;12.50;99.90;;;;;;5045509;28;20052;-28
2022/07/05 01:06:48;;;;;;;4.75;4.32;;;12.50;99.90;;;;;;5064654;28;20509;-28
2022/07/05 01:09:15;;;;;;;5.50;5.00;;;12.50;99.90;;;;;;5071063;28;20093;-28
2022/07/05 01:11:43;;;;;;;7.20;6.00;;;12.50;99.90;;;;;;5079244;28;20032;-28
2022/07/05 01:14:13;;;;;;;6.18;5.20;;;12.50;99.90;;;;;;5068251;28;20044;-28
2022/07/05 01:16:39;;;;;;;8.18;6.85;;;12.50;99.90;;;;;;5091502;28;20568;-28
2022/07/05 01:19:08;;;;;;;6.32;5.43;;;12.50;99.90;;;;;;5085184;28;20119;-28
2022/07/05 01:21:42;;;;;;;6.32;5.82;;;12.50;99.90;;;;;;5074434;28;20044;-28
2022/07/05 01:24:09;;;;;;;8.90;6.55;;;12.40;99.90;;;;;;5087309;28;20382;-28
2022/07/05 01:26:38;;;;;;;6.10;5.60;;;12.40;99.90;;;;;;5086822;28;20422;-28
2022/07/05 01:29:04;;;;;;;6.70;6.00;;;12.40;99.90;;;;;;5062588;28;20079;-28
2022/07/05 01:31:30;;;;;;;5.35;4.85;;;12.30;99.90;;;;;;5080785;28;20522;-28
2022/07/05 01:33:56;;;;;;;6.32;5.72;;;12.30;99.90;;;;;;5080474;28;20036;-28
2022/07/05 01:36:22;;;;;;;6.55;5.95;;;12.30;99.90;;;;;;5079887;28;20040;-28
2022/07/05 01:38:49;;;;;;;6.18;5.68;;;12.30;99.90;;;;;;5088502;28;20086;-28
2022/07/05 01:41:14;;;;;;;6.88;6.18;;;12.30;99.90;;;;;;5063678;28;20046;-28
2022/07/05 01:43:40;;;;;;;8.52;5.55;;;12.20;99.90;;;;;;5063623;28;20036;-28
2022/07/05 01:46:08;;;;;;;6.82;5.97;;;12.30;99.90;;;;;;5089802;28;20032;-28
2022/07/05 01:48:36;;;;;;;6.22;5.72;;;12.30;99.90;;;;;;5083205;28;20048;-28
2022/07/05 01:51:40;;;;;;;7.00;6.38;;;12.20;99.90;;;;;;5087692;28;20490;-28
2022/07/05 01:54:06;;;;;;;6.32;5.82;;;12.20;99.90;;;;;;5019443;28;20172;-28
2022/07/05 01:56:37;;;;;;;7.80;6.55;;;12.20;99.90;;;;;;5077302;28;20036;-28
2022/07/05 01:59:07;;;;;;;7.10;6.50;;;12.20;99.90;;;;;;5065358;28;20102;-28
2022/07/05 02:01:37;;;;;;;6.65;5.80;;;12.20;99.90;;;;;;5091815;28;20073;-28
2022/07/05 02:04:07;;;;;;;7.18;6.47;;;12.10;99.90;;;;;;5082388;28;20111;-28
2022/07/05 02:06:36;;;;;;;7.07;6.20;;;12.10;99.90;;;;;;5091477;28;20040;-28
2022/07/05 02:09:04;;;;;;;7.38;6.68;;;12.10;99.90;;;;;;5091141;28;20040;-28
2022/07/05 02:11:30;;;;;;;7.55;6.43;;;12.00;99.90;;;;;;5078212;28;20041;-28
2022/07/05 02:13:58;;;;;;;9.57;7.50;;;12.00;99.90;;;;;;5087469;28;20216;-28
2022/07/05 02:16:26;;;;;;;8.75;7.40;;;11.90;99.90;;;;;;5075816;28;20047;-28
2022/07/05 02:18:52;;;;;;;7.07;6.38;;;11.90;99.90;;;;;;5068420;28;20047;-28
2022/07/05 02:21:17;;;;;;;6.78;6.18;;;11.90;99.90;;;;;;5074590;28;20487;-28
2022/07/05 02:23:43;;;;;;;6.55;5.95;;;11.80;99.90;;;;;;5087612;28;20125;-28
2022/07/05 02:26:12;;;;;;;8.00;7.20;;;11.80;99.90;;;;;;5084847;28;20044;-28
2022/07/05 02:28:39;;;;;;;7.45;6.75;;;11.70;99.90;;;;;;5069315;28;20072;-28
2022/07/05 02:31:04;;;;;;;7.78;6.45;;;11.70;99.90;;;;;;5079246;28;20036;-28
2022/07/05 02:33:30;;;;;;;8.20;7.40;;;11.60;99.90;;;;;;5079041;28;20092;-28
2022/07/05 02:35:55;;;;;;;8.88;8.05;;;11.60;99.90;;;;;;5078719;28;20463;-28
2022/07/05 02:38:21;;;;;;;8.93;8.13;;;11.70;99.90;;;;;;5081036;28;20079;-28
2022/07/05 02:40:47;;;;;;;8.35;7.53;;;11.70;99.90;;;;;;5075736;28;20068;-28
2022/07/05 02:43:12;;;;;;;8.70;7.80;;;11.70;99.90;;;;;;5077072;28;20075;-28
2022/07/05 02:45:41;;;;;;;8.07;7.35;;;11.80;99.90;;;;;;5090200;28;20570;-28
2022/07/05 02:48:07;;;;;;;8.35;7.55;;;11.70;99.90;;;;;;5076527;28;20087;-28
2022/07/05 02:50:32;;;;;;;8.93;8.00;;;11.70;99.90;;;;;;5063378;28;20072;-28
2022/07/05 02:52:58;;;;;;;8.02;7.25;;;11.70;99.90;;;;;;5079442;28;20111;-28
2022/07/05 02:55:24;;;;;;;9.40;7.07;;;11.70;99.90;;;;;;5083944;28;20047;-28
2022/07/05 02:57:50;;;;;;;8.05;7.25;;;11.70;99.90;;;;;;5087267;28;20121;-27
2022/07/05 03:00:15;;;;;;;9.27;7.70;;;11.70;99.90;;;;;;5090612;28;20047;-28
2022/07/05 03:02:44;;;;;;;9.13;7.68;;;11.70;99.90;;;;;;5086354;28;20517;-28
2022/07/05 03:05:10;;;;;;;8.68;7.20;;;11.60;99.90;;;;;;5077195;28;20498;-28
2022/07/05 03:07:38;;;;;;;8.98;8.02;;;11.60;99.90;;;;;;5080994;28;20036;-28
2022/07/05 03:10:04;;;;;;;8.50;7.60;;;11.50;99.90;;;;;;5065189;28;20046;-28
2022/07/05 03:12:30;;;;;;;8.38;7.60;;;11.50;99.90;;;;;;5063870;28;20082;-28
2022/07/05 03:14:56;;;;;;;10.40;8.18;;;11.50;99.90;;;;;;5090437;28;20040;-28
2022/07/05 03:17:21;;;;;;;8.68;7.88;;;11.50;99.90;;;;;;5078506;28;20518;-28
2022/07/05 03:19:47;;;;;;;10.48;9.25;;;11.60;99.90;;;;;;5090211;28;20032;-28
2022/07/05 03:22:13;;;;;;;9.95;8.35;;;11.60;99.90;;;;;;5082126;28;20051;-28
2022/07/05 03:24:41;;;;;;;8.98;8.02;;;11.60;99.90;;;;;;5088146;28;20071;-28
2022/07/05 03:27:10;;;;;;;8.85;8.05;;;11.60;99.90;;;;;;5061226;28;20087;-28
2022/07/05 03:29:35;;;;;;;9.20;8.32;;;11.60;99.90;;;;;;5069783;28;20032;-28
2022/07/05 03:32:01;;;;;;;10.85;9.10;;;11.60;99.90;;;;;;5090666;28;20062;-28
2022/07/05 03:34:27;;;;;;;9.25;8.30;;;11.60;99.90;;;;;;5089877;28;20032;-28
2022/07/05 03:36:53;;;;;;;10.30;9.40;;;11.50;99.90;;;;;;5081824;28;20410;-28
2022/07/05 03:39:19;;;;;;;9.85;8.95;;;11.60;99.90;;;;;;5078262;28;20113;-27
2022/07/05 03:41:44;;;;;;;9.93;9.02;;;11.60;99.90;;;;;;5066461;28;20047;-27
2022/07/05 03:44:10;;;;;;;10.13;9.23;;;11.60;99.90;;;;;;5079519;28;20036;-27
2022/07/05 03:46:36;;;;;;;9.35;8.43;;;11.60;99.90;;;;;;5085183;28;20497;-27
2022/07/05 03:49:01;;;;;;;10.30;9.15;;;11.60;99.90;;;;;;5072255;28;20039;-28
2022/07/05 03:51:27;;;;;;;10.85;9.85;;;11.60;99.90;;;;;;5081662;28;20036;-28
2022/07/05 03:53:53;;;;;;;11.65;10.45;;;11.70;99.90;;;;;;5090184;28;20119;-28
2022/07/05 03:56:22;;;;;;;11.50;9.77;;;11.70;99.90;;;;;;5067578;28;20084;-28
2022/07/05 03:58:49;;;;;;;10.80;9.70;;;11.70;99.90;;;;;;5080978;28;20494;-28
2022/07/05 04:01:15;;;;;;;10.93;9.85;;;11.80;99.90;;;;;;5071605;28;20041;-28
2022/07/05 04:03:41;;;;;;;11.20;10.18;;;11.80;99.90;;;;;;5088177;28;20468;-28
2022/07/05 04:06:10;;;;;;;11.25;10.02;;;11.90;99.90;;;;;;5060642;28;20031;-28
2022/07/05 04:08:36;;;;;;;10.10;9.07;;;11.90;99.90;;;;;;5090102;28;20479;-28
2022/07/05 04:11:02;;;;;;;14.20;10.68;;;11.90;99.90;;;;;;5064678;28;20092;-28
2022/07/05 04:13:31;;;;;;;10.93;9.90;;;12.00;99.90;;;;;;5081721;28;20043;-27
2022/07/05 04:15:57;;;;;;;11.63;10.55;;;12.00;99.90;;;;;;5077858;28;20069;-27
2022/07/05 04:18:23;;;;;;;12.68;11.38;;;12.10;99.90;;;;;;5079126;28;20559;-27
2022/07/05 04:20:49;;;;;;;12.15;10.98;;;12.30;99.90;;;;;;5084905;28;20071;-26
2022/07/05 04:23:15;;;;;;;12.18;10.90;;;12.40;99.90;;;;;;5081501;28;20063;-24
2022/07/05 04:25:40;;;;;;;11.20;10.20;;;12.50;99.90;;;;;;5076989;28;20086;-23
2022/07/05 04:28:06;;;;;;;12.20;11.00;;;12.60;99.90;;;;;;5076165;28;20036;-23
2022/07/05 04:30:32;;;;;;;12.75;11.57;;;12.70;99.90;;;;;;5082972;28;20111;-24
2022/07/05 04:32:58;;;;;;;14.82;11.40;;;12.90;99.90;;;;;;5092267;28;20097;-24
2022/07/05 04:35:23;;;;;;;12.25;11.15;;;12.90;99.90;;;;;;5094907;28;20039;-24
2022/07/05 04:37:50;;;;;;;11.85;10.68;;;13.00;99.90;;;;;;5076553;28;20036;-24
2022/07/05 04:40:16;;;;;;;12.35;11.25;;;13.10;99.90;;;;;;5071432;28;20032;-24
2022/07/05 04:42:41;;;;;;;11.40;10.35;;;13.20;99.90;;;;;;5071738;28;20172;-24
2022/07/05 04:45:08;;;;;;;11.63;10.48;;;13.30;99.90;;;;;;5069753;28;20588;-25
2022/07/05 04:47:35;;;;;;;12.27;11.02;;;13.40;99.90;;;;;;5051205;28;20044;-25
2022/07/05 04:50:01;;;;;;;11.65;10.45;;;13.50;99.90;;;;;;5069738;28;20039;-23
2022/07/05 04:52:27;;;;;;;11.48;10.45;;;13.60;99.90;;;;;;5051659;28;20094;-25
2022/07/05 04:54:54;;;;;;;10.70;9.65;;;13.70;99.90;;;;;;5071010;28;20044;-23
2022/07/05 04:57:19;;;;;;;12.98;10.98;;;13.80;99.90;;;;;;5054400;28;20048;-23
2022/07/05 04:59:45;;;;;;;11.38;10.30;;;13.90;99.90;;;;;;5055600;28;20036;-23
2022/07/05 05:02:11;;;;;;;12.18;9.77;;;13.90;99.90;;;;;;5059045;28;20047;-24
2022/07/05 05:04:37;;;;;;;11.90;10.70;;;14.10;99.90;;;;;;5058744;28;20097;-23
2022/07/05 05:07:03;;;;;;;11.30;10.23;;;14.20;99.90;;;;;;5093099;28;20639;-24
2022/07/05 05:09:29;;;;;;;12.52;9.98;;;14.20;99.90;;;;;;5093118;28;20075;-24
2022/07/05 05:11:54;;;;;;;10.55;9.55;;;14.30;99.90;;;;;;5092882;28;20447;-26
2022/07/05 05:14:20;;;;;;;10.35;9.45;;;14.40;99.90;;;;;;5074693;28;20040;-23
2022/07/05 05:16:46;;;;;;;10.85;9.90;;;14.40;99.90;;;;;;5093246;28;20032;-24
2022/07/05 05:19:12;;;;;;;10.80;9.77;;;14.50;99.90;;;;;;5115945;22;20036;-87
2022/07/05 05:21:37;;;;;;;13.18;9.57;;;14.60;99.90;;;;;;5054335;28;20123;-88
2022/07/05 05:24:04;;;;;;;11.30;10.13;;;14.70;99.90;;;;;;5078292;28;20043;-88
2022/07/05 05:26:29;;;;;;;10.60;9.60;;;14.70;99.90;;;;;;5039004;28;20048;-87
2022/07/05 05:28:55;;;;;;;10.23;8.98;;;14.80;99.90;;;;;;5065383;28;20037;-88
2022/07/05 05:31:21;;;;;;;10.75;9.68;;;14.80;99.90;;;;;;5100542;28;20093;-87
2022/07/05 05:33:47;;;;;;;9.63;8.73;;;14.90;99.90;;;;;;5088085;28;20047;-88
2022/07/05 05:36:13;;;;;;;9.85;8.70;;;14.90;99.90;;;;;;5056937;28;20047;-88
2022/07/05 05:38:39;;;;;;;11.10;9.48;;;14.90;99.90;;;;;;5058247;28;20035;-87
2022/07/05 05:41:05;;;;;;;9.77;8.77;;;15.00;99.90;;;;;;5048224;28;20080;-88
2022/07/05 05:43:31;;;;;;;9.57;8.70;;;15.10;99.90;;;;;;5062645;28;20047;-88
2022/07/05 05:45:56;;;;;;;9.90;8.95;;;15.20;99.90;;;;;;5061772;28;20119;-88
2022/07/05 05:48:22;;;;;;;9.15;8.15;;;15.30;99.90;;;;;;5073227;28;20119;-87
2022/07/05 05:50:48;;;;;;;9.30;8.40;;;15.40;99.90;;;;;;5088060;28;20028;-88
2022/07/05 05:53:14;;;;;;;9.70;8.55;;;15.50;99.90;;;;;;5075170;28;20035;-87
2022/07/05 05:55:41;;;;;;;10.35;9.38;;;15.60;99.90;;;;;;5078727;28;20118;-88
2022/07/05 05:58:15;;;;;;;9.63;8.20;;;15.60;99.90;;;;;;5062033;28;20099;-87
2022/07/05 06:00:42;;;;;;;9.35;8.45;;;15.80;99.90;;;;;;5069726;28;20054;-88
2022/07/05 06:03:08;;;;;;;8.32;7.63;;;15.90;99.90;;;;;;5072483;28;20044;-88
2022/07/05 06:05:34;;;;;;;10.23;7.55;;;15.90;99.90;;;;;;5071767;28;20056;-88
2022/07/05 06:07:59;;;;;;;9.57;8.55;;;16.00;99.90;;;;;;5051105;28;20040;-87
2022/07/05 06:10:28;;;;;;;12.77;8.60;;;16.10;99.90;;;;;;5063575;28;20120;-88
2022/07/05 06:12:55;;;;;;;9.45;8.40;;;16.20;99.90;;;;;;5050311;28;20519;-88
2022/07/05 06:15:21;;;;;;;9.63;8.00;;;16.20;99.90;;;;;;5072859;28;20089;-88
2022/07/05 06:17:51;;;;;;;7.90;7.30;;;16.30;99.90;;;;;;5070054;28;20047;-88
2022/07/05 06:20:22;;;;;;;8.55;7.63;;;16.30;99.90;;;;;;5071650;28;20071;-87
2022/07/05 06:22:48;;;;;;;12.75;8.20;;;16.40;99.90;;;;;;5074011;28;20044;-88
2022/07/05 06:25:14;;;;;;;9.25;7.15;;;16.50;99.90;;;;;;5058883;28;20403;-87
2022/07/05 06:27:48;;;;;;;8.02;7.30;;;16.60;99.90;;;;;;5066610;28;20051;-88
2022/07/05 06:30:17;;;;;;;9.40;7.35;;;16.70;99.90;;;;;;5067657;28;20026;-88
2022/07/05 06:32:45;;;;;;;7.50;6.63;;;16.80;99.90;;;;;;5047966;28;20036;-88
2022/07/05 06:35:11;;;;;;;9.60;6.90;;;16.90;99.90;;;;;;5074348;28;20422;-88
2022/07/05 06:37:47;;;;;;;7.45;6.60;;;16.90;99.90;;;;;;5053146;28;20071;-88
2022/07/05 06:40:25;;;;;;;7.75;7.03;;;17.00;99.90;;;;;;5091306;28;20028;-88
2022/07/05 06:42:54;;;;;;;8.73;7.05;;;17.10;99.90;;;;;;5056305;28;20571;-89
2022/07/05 06:45:22;;;;;;;6.60;5.93;;;17.20;99.90;;;;;;5074243;28;20520;-88
2022/07/05 06:47:55;;;;;;;8.18;5.55;;;17.40;99.90;;;;;;5059406;28;20036;-88
2022/07/05 06:50:23;;;;;;;7.03;5.70;;;17.50;99.90;;;;;;5053630;28;20404;-88
2022/07/05 06:52:58;;;;;;;6.75;5.10;;;17.60;99.90;;;;;;5050117;28;20046;-89
2022/07/05 06:55:41;;;;;;;5.47;5.07;;;17.70;99.90;;;;;;5061784;28;20075;-88
2022/07/05 06:58:16;;;;;;;4.50;3.67;;;17.90;99.90;;;;;;5073226;28;20032;-89
2022/07/05 07:00:43;;;;;;;3.80;2.80;;;18.10;99.90;;;;;;5068321;28;20117;-88
2022/07/05 07:03:16;;;;;;;3.50;3.15;;;18.20;99.90;;;;;;5055902;28;20211;-89
2022/07/05 07:05:42;;;;;;;6.07;3.42;;;18.30;99.90;;;;;;5067198;28;20102;-88
2022/07/05 07:11:03;;;;;;;5.00;2.95;;;18.60;99.90;;;;;;5080154;28;20048;-88
2022/07/05 07:13:42;;;;;;;3.67;3.05;;;18.70;99.90;;;;;;5057440;28;20471;-88
2022/07/05 07:16:08;;;;;;;3.97;2.30;;;18.70;99.90;;;;;;5071045;28;20040;-88
2022/07/05 07:18:35;;;;;;;4.80;2.63;;;18.90;99.90;;;;;;5052205;28;20050;-88
2022/07/05 07:21:06;;;;;;;5.63;2.75;;;19.00;99.90;;;;;;5054231;28;20051;-89
2022/07/05 07:23:32;;;;;;;2.70;2.50;;;19.10;99.90;;;;;;5077741;28;20067;-87
2022/07/05 07:25:58;;;;;;;3.15;2.33;;;19.20;99.90;;;;;;5062307;28;20068;-89
2022/07/05 07:28:24;;;;;;;3.83;2.60;;;19.30;99.90;;;;;;5086884;28;20044;-89
2022/07/05 07:30:49;;;;;;;4.95;2.50;;;19.40;99.90;;;;;;5073366;28;20527;-88
2022/07/05 07:33:15;;;;;;;4.28;2.40;;;19.50;99.90;;;;;;5061736;28;20119;-89
2022/07/05 07:35:41;;;;;;;3.65;2.80;;;19.80;99.90;;;;;;5085612;28;20071;-88
2022/07/05 07:38:15;;;;;;;6.55;2.65;;;19.90;99.90;;;;;;5081013;28;20438;-87
2022/07/05 07:40:41;;;;;;;5.15;2.25;;;20.10;99.90;;;;;;5074180;28;20563;-89
2022/07/05 07:43:06;;;;;;;3.05;1.85;;;20.10;99.90;;;;;;5058269;28;20090;-88
2022/07/05 07:45:32;;;;;;;1.65;1.55;;;20.10;99.90;;;;;;5053863;28;20036;-87
2022/07/05 07:48:08;;;;;;;3.20;1.40;;;20.10;99.90;;;;;;5080668;28;20194;-88
2022/07/05 07:50:34;;;;;;;2.40;1.60;;;20.00;99.90;;;;;;5073553;28;20036;-89
2022/07/05 07:53:00;;;;;;;2.97;1.70;;;20.10;99.90;;;;;;5053710;28;20055;-88
2022/07/05 07:55:29;;;;;;;2.30;1.83;;;20.30;99.90;;;;;;5055472;28;20036;-89
2022/07/05 07:57:55;;;;;;;3.65;1.75;;;20.40;99.90;;;;;;5071342;28;20039;-88
2022/07/05 08:00:21;;;;;;;3.13;1.70;;;20.40;99.90;;;;;;5055817;28;20563;-88
2022/07/05 08:02:56;;;;;;;4.50;1.98;;;20.30;99.90;;;;;;5045325;28;20033;-89
2022/07/05 08:05:32;;;;;;;3.63;1.80;;;20.10;99.90;;;;;;5085603;28;20036;-89
2022/07/05 08:08:01;;;;;;;2.03;1.30;;;20.10;99.90;;;;;;5058998;28;20036;-88
2022/07/05 08:10:32;;;;;;;4.07;1.77;;;19.90;99.90;;;;;;5039503;28;20053;-89
2022/07/05 08:13:27;;;;;;;2.30;1.50;;;19.70;99.90;;;;;;5071065;28;20143;-88
2022/07/05 08:15:53;;;;;;;3.47;1.50;;;20.00;99.90;;;;;;5088410;28;20492;-88
2022/07/05 08:21:39;;;;;;;3.78;1.52;;;20.60;99.90;;;;;;5085132;28;20112;-88
2022/07/05 08:24:08;;;;;;;2.10;1.25;;;20.80;99.90;;;;;;5074459;28;20043;-88
2022/07/05 08:26:40;;;;;;;2.58;1.48;;;21.20;99.90;;;;;;5068160;28;20044;-90
2022/07/05 08:29:13;;;;;;;2.72;1.08;;;21.40;99.90;;;;;;5094038;28;20141;-88
2022/07/05 08:31:45;;;;;;;1.60;1.10;;;21.70;99.80;;;;;;5041076;28;20044;-88
2022/07/05 08:34:11;;;;;;;2.22;1.15;;;21.70;97.80;;;;;;5035796;28;20040;-88
2022/07/05 08:36:41;;;;;;;1.33;1.00;;;21.40;97.60;;;;;;5051064;28;20032;-87
2022/07/05 08:39:08;;;;;;;1.35;1.02;;;21.10;98.40;;;;;;5047727;28;20041;-88
2022/07/05 08:41:44;;;;;;;9.35;1.50;;;20.80;98.60;;;;;;5042941;28;20142;-89
2022/07/05 08:44:15;;;;;;;3.95;1.15;;;20.50;99.30;;;;;;5043491;28;20052;-90
2022/07/05 08:46:45;;;;;;;2.85;1.35;;;20.70;99.30;;;;;;5036188;28;20067;-88
2022/07/05 08:49:20;;;;;;;3.85;1.27;;;21.00;99.90;;;;;;5043354;28;20091;-89
2022/07/05 08:51:52;;;;;;;2.15;1.30;;;21.40;99.40;;;;;;5062777;28;20037;-90
2022/07/05 08:54:31;;;;;;;3.90;1.20;;;22.00;99.60;;;;;;5048210;28;20036;-88
2022/07/05 08:57:03;;;;;;;2.45;1.00;;;22.40;92.60;;;;;;5056113;28;20048;-88
2022/07/05 08:59:32;;;;;;;2.25;1.35;;;22.20;91.80;;;;;;5030411;28;20042;-88
2022/07/05 09:02:13;;;;;;;2.60;1.20;;;21.70;92.80;;;;;;5056929;28;20041;-88
2022/07/05 09:04:45;;;;;;;3.33;1.33;;;21.30;91.10;;;;;;5044993;28;20032;-88
2022/07/05 09:07:16;;;;;;;3.70;1.35;;;21.10;94.70;;;;;;5037663;28;20040;-87
2022/07/05 09:09:52;;;;;;;5.68;1.30;;;20.90;95.40;;;;;;5032488;28;20037;-88
2022/07/05 09:12:21;;;;;;;2.67;1.23;;;20.70;97.10;;;;;;5044397;28;20048;-89
2022/07/05 09:14:46;;;;;;;3.47;1.30;;;20.90;98.70;;;;;;5070033;28;20085;-88
2022/07/05 09:17:15;;;;;;;6.53;1.50;;;21.30;97.10;;;;;;5053281;28;20072;-88
2022/07/05 09:20:03;;;;;;;2.78;1.20;;;21.90;96.70;;;;;;5053247;28;20079;-89
2022/07/05 09:22:42;;;;;;;1.70;1.05;;;22.10;91.50;;;;;;5026526;28;20120;-88
2022/07/05 09:25:20;;;;;;;3.50;1.10;;;22.00;90.10;;;;;;5042896;28;20099;-89
2022/07/05 09:27:49;;;;;;;3.28;1.20;;;21.90;85.00;;;;;;5034460;28;20535;-88
2022/07/05 09:30:31;;;;;;;3.30;1.45;;;22.30;91.90;;;;;;5046574;28;20082;-89
2022/07/05 09:33:21;;;;;;;5.05;1.50;;;22.90;85.40;;;;;;5050794;28;20487;-88
2022/07/05 09:35:56;;;;;;;2.55;1.13;;;23.10;76.70;;;;;;5049059;28;20043;-89
2022/07/05 09:38:25;;;;;;;2.53;1.20;;;23.00;83.40;;;;;;5035426;28;20037;-88
2022/07/05 09:40:58;;;;;;;2.72;1.20;;;22.90;84.90;;;;;;5033528;28;20036;-88
2022/07/05 09:43:30;;;;;;;1.83;0.90;;;22.60;80.30;;;;;;5043373;28;20065;-88
2022/07/05 09:46:05;;;;;;;1.33;1.10;;;22.30;88.50;;;;;;5055644;28;20041;-89
2022/07/05 09:48:52;;;;;;;2.45;1.13;;;22.30;89.60;;;;;;5033304;28;20116;-89
2022/07/05 09:51:18;;;;;;;2.08;1.00;;;22.80;74.40;;;;;;5034208;28;20048;-89
2022/07/05 09:53:49;;;;;;;3.13;1.05;;;22.90;85.10;;;;;;5038132;28;20101;-89
2022/07/05 09:56:15;;;;;;;2.40;1.15;;;22.70;75.90;;;;;;5068077;28;20025;-88
2022/07/05 09:58:41;;;;;;;3.05;1.13;;;22.40;82.40;;;;;;5050969;28;20503;-88
2022/07/05 10:01:42;;;;;;;1.75;1.10;;;22.10;84.20;;;;;;5058575;28;20037;-88
2022/07/05 10:04:10;;;;;;;2.88;1.10;;;21.60;77.70;;;;;;4994348;28;20038;-89
2022/07/05 10:06:39;;;;;;;2.08;1.00;;;21.50;90.70;;;;;;5035837;28;20080;-88
2022/07/05 10:09:30;;;;;;;1.65;1.08;;;21.80;92.00;;;;;;5064609;28;20049;-90
2022/07/05 10:12:29;;;;;;;3.22;1.35;;;22.50;71.50;;;;;;5035053;28;20480;-89
2022/07/05 10:14:59;;;;;;;3.22;1.30;;;23.30;91.10;;;;;;5041328;28;20040;-90
2022/07/05 10:17:32;;;;;;;3.53;1.20;;;24.00;81.90;;;;;;5047579;28;20409;-88
2022/07/05 10:20:41;;;;;;;3.20;1.10;;;24.80;82.40;;;;;;5035268;28;20048;-89
2022/07/05 10:23:14;;;;;;;1.45;1.00;;;25.00;62.00;;;;;;5037888;28;20076;-88
2022/07/05 10:25:48;;;;;;;1.55;0.95;;;24.50;62.60;;;;;;5037863;28;20044;-90
2022/07/05 10:28:21;;;;;;;1.90;1.00;;;23.70;65.90;;;;;;5033916;28;20060;-87
2022/07/05 10:30:51;;;;;;;2.97;1.10;;;23.30;65.20;;;;;;5028611;28;20047;-88
2022/07/05 10:33:28;;;;;;;2.63;1.10;;;22.90;68.20;;;;;;5033049;28;20029;-88
2022/07/05 10:35:58;;;;;;;3.15;1.20;;;22.70;68.60;;;;;;5051175;28;20120;-88
2022/07/05 10:38:30;;;;;;;1.52;0.88;;;22.60;70.80;;;;;;5040286;28;20036;-88
2022/07/05 10:41:01;;;;;;;3.20;1.08;;;22.90;74.70;;;;;;5063847;28;20040;-88
2022/07/05 10:46:42;;;;;;;4.10;1.40;;;23.10;72.90;;;;;;5046980;28;20193;-88
2022/07/05 10:49:17;;;;;;;4.30;1.40;;;22.80;68.00;;;;;;5027958;28;20075;-91
2022/07/05 10:51:46;;;;;;;2.80;1.20;;;22.40;76.20;;;;;;5022129;28;20044;-91
2022/07/05 10:54:39;;;;;;;2.53;1.33;;;22.70;80.40;;;;;;5068992;28;20032;-88
2022/07/05 10:57:35;;;;;;;2.90;1.40;;;23.40;87.10;;;;;;5071630;28;20074;-89
2022/07/05 11:00:22;;;;;;;2.80;1.40;;;24.00;61.50;;;;;;5049990;28;20047;-89
2022/07/05 11:03:12;;;;;;;2.42;1.02;;;24.40;64.40;;;;;;5060320;28;20043;-89
2022/07/05 11:05:52;;;;;;;3.55;1.58;;;24.30;61.20;;;;;;5060899;28;20520;-90
2022/07/05 11:08:38;;;;;;;2.10;1.10;;;24.00;66.60;;;;;;5065677;28;20128;-89
2022/07/05 11:12:16;;;;;;;3.17;1.10;;;23.60;69.00;;;;;;5041193;28;20040;-89
2022/07/05 11:14:33;;;;;;;3.47;1.33;;;23.20;71.80;;;;;;5033042;28;20041;-89
2022/07/05 11:17:34;;;;;;;4.10;1.50;;;22.80;77.50;;;;;;5032665;28;20036;-89
2022/07/05 11:20:09;;;;;;;1.92;1.45;;;22.70;82.20;;;;;;5036455;28;20509;-89
2022/07/05 11:23:29;;;;;;;5.05;1.38;;;22.50;85.00;;;;;;5051491;28;20408;-89
2022/07/05 11:25:57;;;;;;;3.40;1.23;;;22.70;89.90;;;;;;5024043;28;20643;-88
2022/07/05 11:28:26;;;;;;;2.60;1.30;;;23.00;85.60;;;;;;5047579;28;20041;-89
2022/07/05 11:31:01;;;;;;;3.45;1.40;;;22.90;85.10;;;;;;5035098;28;20037;-89
2022/07/05 11:34:12;;;;;;;;;;;;;;;;;;;;;
2022/07/05 11:36:36;;;;;;;4.18;1.63;;;22.80;84.10;;;;;;5048750;28;20076;-89
2022/07/05 11:39:09;;;;;;;3.95;1.67;;;22.70;82.60;;;;;;5040581;28;20080;-89
2022/07/05 11:42:33;;;;;;;2.90;1.50;;;22.80;84.80;;;;;;5069016;28;20458;-88
2022/07/05 11:45:49;;;;;;;1.45;1.20;;;23.50;92.30;;;;;;5049668;28;20138;-88
2022/07/05 11:48:33;;;;;;;2.72;1.20;;;24.20;79.20;;;;;;4996127;28;20052;-88
2022/07/05 11:51:12;;;;;;;2.53;1.20;;;24.20;71.10;;;;;;5038985;28;20043;-88
2022/07/05 11:53:50;;;;;;;1.58;1.10;;;24.10;75.00;;;;;;5052458;28;20075;-87
2022/07/05 11:56:32;;;;;;;3.03;1.48;;;24.00;67.80;;;;;;5041426;28;20037;-90
2022/07/05 11:59:05;;;;;;;1.85;1.20;;;23.50;70.10;;;;;;5073204;28;20047;-88
2022/07/05 12:01:43;;;;;;;2.67;1.67;;;23.10;69.70;;;;;;5047015;28;20049;-88
2022/07/05 12:04:23;;;;;;;2.70;1.40;;;22.70;70.20;;;;;;5039795;28;20112;-89
2022/07/05 12:06:59;;;;;;;3.35;1.30;;;22.40;75.90;;;;;;5045074;28;20033;-89
2022/07/05 12:12:53;;;;;;;;;;;;;;;;;;;;;
2022/07/05 12:15:39;;;;;;;2.63;1.48;;;22.00;78.40;;;;;;5066814;28;20107;-89
2022/07/05 12:18:30;;;;;;;2.55;1.20;;;22.20;79.50;;;;;;5063791;28;20056;-88
2022/07/05 12:21:20;;;;;;;5.38;1.30;;;23.00;75.10;;;;;;5060706;28;20070;-88
2022/07/05 12:23:57;;;;;;;2.08;1.00;;;23.70;70.50;;;;;;5052903;28;20501;-90
2022/07/05 12:26:41;;;;;;;1.80;1.00;;;24.20;61.40;;;;;;5063045;28;20037;-90
2022/07/05 12:29:15;;;;;;;1.52;1.00;;;24.50;58.20;;;;;;5039161;28;20044;-90
2022/07/05 12:32:02;;;;;;;1.98;1.00;;;24.50;59.50;;;;;;5062145;28;20044;-89
2022/07/05 12:34:30;;;;;;;1.92;1.10;;;24.80;54.50;;;;;;5052859;28;20424;-90
2022/07/05 12:36:57;;;;;;;2.25;1.17;;;24.70;54.80;;;;;;5046748;28;20576;-89
2022/07/05 12:39:23;;;;;;;2.00;0.90;;;24.90;56.30;;;;;;5038544;28;20040;-89
2022/07/05 12:42:32;;;;;;;2.35;1.00;;;25.00;54.90;;;;;;5032106;28;20132;-89
2022/07/05 12:44:44;;;;;;;2.13;0.90;;;25.20;53.00;;;;;;5061455;28;20088;-89
2022/07/05 12:47:23;;;;;;;2.67;1.08;;;25.70;54.80;;;;;;5046874;28;20045;-89
2022/07/05 12:50:33;;;;;;;3.28;0.75;;;26.30;52.20;;;;;;5054880;28;20044;-90
2022/07/05 12:59:11;;;;;;;1.42;0.80;;;27.00;50.00;;;;;;5053552;28;20515;-89
2022/07/05 13:01:40;;;;;;;3.38;0.80;;;26.70;48.10;;;;;;5037035;28;20037;-89
2022/07/05 13:04:30;;;;;;;2.00;0.85;;;26.30;47.60;;;;;;5039751;28;20044;-89
2022/07/05 13:07:24;;;;;;;0.80;0.75;;;26.20;48.20;;;;;;5056911;28;20040;-90
2022/07/05 13:09:56;;;;;;;1.45;0.70;;;25.90;47.90;;;;;;5031699;28;20063;-89
2022/07/05 13:12:29;;;;;;;1.77;0.90;;;25.50;48.10;;;;;;5047833;28;20405;-89
2022/07/05 13:14:57;;;;;;;1.45;0.80;;;25.70;48.00;;;;;;5034004;28;20033;-89
2022/07/05 13:17:34;;;;;;;1.63;0.70;;;26.00;48.30;;;;;;5039259;28;20119;-88
2022/07/05 13:20:09;;;;;;;2.13;0.77;;;25.90;46.90;;;;;;5048097;28;20045;-88
2022/07/05 13:22:37;;;;;;;1.25;0.73;;;25.80;46.60;;;;;;5035816;28;20036;-89
2022/07/05 13:25:21;;;;;;;;;;;;;;;;;;;;;
2022/07/05 13:27:53;;;;;;;2.95;0.77;;;26.20;46.90;;;;;;5072620;28;20665;-88